CheckWX is a tool to help pilots better visualize weather data.  It is not intended as a substitute for an official pre-flight weather briefing.

00:06:30 UTC

KFAT METAR
Fresno Yosemite International Airport
Fresno, California, USA
Current

14 mins ago

KFAT 052353Z 18004KT 10SM BKN180 BKN250 18/09 A3007 RMK AO2 SLP180 T01780089 10189 20139 56007
Observed
Dec-5 @ 23:53 UTC
Wind
  • 180° at 4 KTS
Visibility
10 SM
Flight Rules
VFR
Cloud Levels
  • Broken at 18,000' AGL
  • Broken at 25,000' AGL
Temperature
18°C / 64°F
Dewpoint
C / 48°F
Humidity
56%
Altimeter
30.07" Hg
Pressure
1018.32 hPa
Previous

1 hour ago

KFAT 052253Z 16003KT 10SM OVC200 18/08 A3007 RMK AO2 SLP181 T01830083
Observed
Dec-5 @ 22:53 UTC
Wind
  • 160° at 3 KTS
Visibility
10 SM
Flight Rules
VFR
Cloud Levels
  • Overcast at 20,000' AGL
Temperature
18°C / 64°F
Dewpoint
C / 46°F
Humidity
52%
Altimeter
30.07" Hg
Pressure
1018.32 hPa
Previous

2 hours ago

KFAT 052153Z 30003KT 10SM OVC250 18/08 A3007 RMK AO2 SLP182 T01830083
Observed
Dec-5 @ 21:53 UTC
Wind
  • 300° at 3 KTS
Visibility
10 SM
Flight Rules
VFR
Cloud Levels
  • Overcast at 25,000' AGL
Temperature
18°C / 64°F
Dewpoint
C / 46°F
Humidity
52%
Altimeter
30.07" Hg
Pressure
1018.32 hPa